sensor_id;sensor_type;location;lat;lon;timestamp;pressure;altitude;pressure_sealevel;temperature;humidity
5380;BME280;2713;42.680;23.310;2023-02-23T00:01:18;94924.44;;;11.57;53.38
5380;BME280;2713;42.680;23.310;2023-02-23T00:03:47;94916.13;;;11.47;53.48
5380;BME280;2713;42.680;23.310;2023-02-23T00:06:18;94915.88;;;11.63;53.50
5380;BME280;2713;42.680;23.310;2023-02-23T00:08:45;94925.75;;;11.47;53.85
5380;BME280;2713;42.680;23.310;2023-02-23T00:11:14;94925.00;;;11.74;53.41
5380;BME280;2713;42.680;23.310;2023-02-23T00:13:43;94916.75;;;11.71;52.84
5380;BME280;2713;42.680;23.310;2023-02-23T00:16:13;94941.91;;;11.63;52.79
5380;BME280;2713;42.680;23.310;2023-02-23T00:18:42;94929.06;;;11.62;52.50
5380;BME280;2713;42.680;23.310;2023-02-23T00:21:13;94928.75;;;11.44;52.83
5380;BME280;2713;42.680;23.310;2023-02-23T00:23:47;94926.25;;;11.57;52.83
5380;BME280;2713;42.680;23.310;2023-02-23T00:26:15;94928.09;;;11.63;52.54
5380;BME280;2713;42.680;23.310;2023-02-23T00:28:45;94936.13;;;11.40;53.55
5380;BME280;2713;42.680;23.310;2023-02-23T00:31:13;94932.44;;;11.35;53.56
5380;BME280;2713;42.680;23.310;2023-02-23T00:33:39;94927.34;;;11.48;53.00
5380;BME280;2713;42.680;23.310;2023-02-23T00:36:09;94930.16;;;11.46;53.32
5380;BME280;2713;42.680;23.310;2023-02-23T00:38:37;94934.56;;;11.46;53.37
5380;BME280;2713;42.680;23.310;2023-02-23T00:41:07;94921.84;;;11.57;52.84
5380;BME280;2713;42.680;23.310;2023-02-23T00:43:36;94931.03;;;11.53;53.21
5380;BME280;2713;42.680;23.310;2023-02-23T00:46:04;94935.69;;;11.37;53.65
5380;BME280;2713;42.680;23.310;2023-02-23T00:48:32;94935.09;;;11.20;54.21
5380;BME280;2713;42.680;23.310;2023-02-23T00:51:00;94933.47;;;11.12;54.06
5380;BME280;2713;42.680;23.310;2023-02-23T00:53:28;94934.38;;;11.05;54.09
5380;BME280;2713;42.680;23.310;2023-02-23T00:55:55;94922.78;;;11.29;53.67
5380;BME280;2713;42.680;23.310;2023-02-23T00:58:24;94928.59;;;11.31;53.56
5380;BME280;2713;42.680;23.310;2023-02-23T01:00:51;94926.81;;;11.10;54.03
5380;BME280;2713;42.680;23.310;2023-02-23T01:03:20;94924.84;;;11.12;53.72
5380;BME280;2713;42.680;23.310;2023-02-23T01:05:47;94929.41;;;11.31;53.24
5380;BME280;2713;42.680;23.310;2023-02-23T01:08:15;94924.16;;;11.25;53.76
5380;BME280;2713;42.680;23.310;2023-02-23T01:10:42;94928.63;;;11.09;54.81
5380;BME280;2713;42.680;23.310;2023-02-23T01:13:11;94933.03;;;11.09;54.01
5380;BME280;2713;42.680;23.310;2023-02-23T01:15:42;94927.06;;;11.15;54.08
5380;BME280;2713;42.680;23.310;2023-02-23T01:18:09;94936.59;;;11.08;54.55
5380;BME280;2713;42.680;23.310;2023-02-23T01:20:37;94932.16;;;11.02;54.49
5380;BME280;2713;42.680;23.310;2023-02-23T01:23:06;94927.31;;;10.99;54.21
5380;BME280;2713;42.680;23.310;2023-02-23T01:25:33;94933.41;;;11.06;54.14
5380;BME280;2713;42.680;23.310;2023-02-23T01:28:00;94929.03;;;11.13;53.71
5380;BME280;2713;42.680;23.310;2023-02-23T01:30:28;94927.81;;;11.09;53.77
5380;BME280;2713;42.680;23.310;2023-02-23T01:32:56;94922.56;;;11.02;54.30
5380;BME280;2713;42.680;23.310;2023-02-23T01:35:23;94925.00;;;10.89;54.59
5380;BME280;2713;42.680;23.310;2023-02-23T01:37:50;94926.81;;;10.89;54.73
5380;BME280;2713;42.680;23.310;2023-02-23T01:40:20;94926.81;;;10.89;54.60
5380;BME280;2713;42.680;23.310;2023-02-23T01:42:55;94927.78;;;10.88;54.93
5380;BME280;2713;42.680;23.310;2023-02-23T01:45:27;94925.31;;;10.80;55.20
5380;BME280;2713;42.680;23.310;2023-02-23T01:47:58;94926.91;;;10.81;54.94
5380;BME280;2713;42.680;23.310;2023-02-23T01:50:29;94921.22;;;10.71;55.35
5380;BME280;2713;42.680;23.310;2023-02-23T01:52:58;94915.16;;;10.49;55.69
5380;BME280;2713;42.680;23.310;2023-02-23T01:55:25;94920.94;;;10.65;55.25
5380;BME280;2713;42.680;23.310;2023-02-23T01:57:58;94923.75;;;10.64;55.26
5380;BME280;2713;42.680;23.310;2023-02-23T02:00:27;94919.06;;;10.74;54.71
5380;BME280;2713;42.680;23.310;2023-02-23T02:02:57;94921.03;;;10.93;53.98
5380;BME280;2713;42.680;23.310;2023-02-23T02:05:27;94920.66;;;10.96;53.84
5380;BME280;2713;42.680;23.310;2023-02-23T02:07:55;94922.13;;;10.99;53.70
5380;BME280;2713;42.680;23.310;2023-02-23T02:10:25;94920.94;;;10.65;55.49
5380;BME280;2713;42.680;23.310;2023-02-23T02:13:08;94901.34;;;10.48;55.26
5380;BME280;2713;42.680;23.310;2023-02-23T02:15:45;94908.97;;;10.50;55.90
5380;BME280;2713;42.680;23.310;2023-02-23T02:18:26;94912.75;;;10.47;56.06
5380;BME280;2713;42.680;23.310;2023-02-23T02:21:22;94911.66;;;10.56;55.53
5380;BME280;2713;42.680;23.310;2023-02-23T02:24:25;94914.16;;;10.64;54.87
5380;BME280;2713;42.680;23.310;2023-02-23T02:27:06;94923.28;;;10.75;54.79
5380;BME280;2713;42.680;23.310;2023-02-23T02:33:16;94925.44;;;10.72;54.89
5380;BME280;2713;42.680;23.310;2023-02-23T02:36:36;94928.56;;;10.67;55.53
5380;BME280;2713;42.680;23.310;2023-02-23T02:39:06;94922.84;;;10.72;55.42
5380;BME280;2713;42.680;23.310;2023-02-23T02:41:51;94920.69;;;10.60;55.79
5380;BME280;2713;42.680;23.310;2023-02-23T02:44:27;94918.41;;;10.51;56.26
5380;BME280;2713;42.680;23.310;2023-02-23T02:47:00;94919.09;;;10.45;57.11
5380;BME280;2713;42.680;23.310;2023-02-23T02:49:31;94914.34;;;10.48;56.89
5380;BME280;2713;42.680;23.310;2023-02-23T02:52:10;94917.50;;;10.44;56.74
5380;BME280;2713;42.680;23.310;2023-02-23T02:54:46;94913.34;;;10.64;56.39
5380;BME280;2713;42.680;23.310;2023-02-23T02:57:14;94911.13;;;10.61;56.72
5380;BME280;2713;42.680;23.310;2023-02-23T02:59:43;94921.09;;;10.43;57.28
5380;BME280;2713;42.680;23.310;2023-02-23T03:02:31;94912.75;;;10.33;57.36
5380;BME280;2713;42.680;23.310;2023-02-23T03:05:19;94912.25;;;10.58;56.26
5380;BME280;2713;42.680;23.310;2023-02-23T03:08:11;94916.56;;;10.66;55.79
5380;BME280;2713;42.680;23.310;2023-02-23T03:11:02;94917.75;;;10.49;56.53
5380;BME280;2713;42.680;23.310;2023-02-23T03:13:57;94919.09;;;10.45;56.26
5380;BME280;2713;42.680;23.310;2023-02-23T03:16:52;94920.03;;;10.37;56.59
5380;BME280;2713;42.680;23.310;2023-02-23T03:19:46;94921.09;;;10.43;56.83
5380;BME280;2713;42.680;23.310;2023-02-23T03:22:36;94927.53;;;10.32;57.12
5380;BME280;2713;42.680;23.310;2023-02-23T03:25:26;94933.84;;;10.23;57.68
5380;BME280;2713;42.680;23.310;2023-02-23T03:28:15;94932.94;;;10.16;58.08
5380;BME280;2713;42.680;23.310;2023-02-23T03:31:05;94932.66;;;10.40;57.51
5380;BME280;2713;42.680;23.310;2023-02-23T03:33:59;94931.75;;;10.18;58.39
5380;BME280;2713;42.680;23.310;2023-02-23T03:36:49;94931.66;;;10.12;58.35
5380;BME280;2713;42.680;23.310;2023-02-23T03:39:37;94940.78;;;10.08;59.01
5380;BME280;2713;42.680;23.310;2023-02-23T03:42:28;94941.63;;;10.23;58.03
5380;BME280;2713;42.680;23.310;2023-02-23T03:45:18;94940.88;;;10.14;58.17
5380;BME280;2713;42.680;23.310;2023-02-23T03:48:05;94947.19;;;10.20;57.64
5380;BME280;2713;42.680;23.310;2023-02-23T03:50:53;94945.16;;;10.07;58.45
5380;BME280;2713;42.680;23.310;2023-02-23T03:53:41;94940.59;;;9.95;59.11
5380;BME280;2713;42.680;23.310;2023-02-23T03:56:31;94946.69;;;10.02;59.55
5380;BME280;2713;42.680;23.310;2023-02-23T03:59:19;94953.31;;;10.04;59.35
5380;BME280;2713;42.680;23.310;2023-02-23T04:02:09;94946.06;;;10.00;58.89
5380;BME280;2713;42.680;23.310;2023-02-23T04:04:58;94926.16;;;9.78;59.19
5380;BME280;2713;42.680;23.310;2023-02-23T04:07:46;94956.69;;;9.90;59.36
5380;BME280;2713;42.680;23.310;2023-02-23T04:10:33;94956.97;;;9.81;59.90
5380;BME280;2713;42.680;23.310;2023-02-23T04:13:21;94956.19;;;9.57;60.62
5380;BME280;2713;42.680;23.310;2023-02-23T04:15:51;94949.59;;;9.69;60.48
5380;BME280;2713;42.680;23.310;2023-02-23T04:18:22;94954.78;;;9.69;59.76
5380;BME280;2713;42.680;23.310;2023-02-23T04:20:49;94942.00;;;9.68;59.60
5380;BME280;2713;42.680;23.310;2023-02-23T04:23:17;94937.72;;;9.75;59.56
5380;BME280;2713;42.680;23.310;2023-02-23T04:25:43;94944.78;;;9.81;59.62
5380;BME280;2713;42.680;23.310;2023-02-23T04:28:12;94947.47;;;9.88;59.97
5380;BME280;2713;42.680;23.310;2023-02-23T04:30:38;94949.66;;;9.99;58.77
5380;BME280;2713;42.680;23.310;2023-02-23T04:33:07;94958.50;;;10.04;58.50
5380;BME280;2713;42.680;23.310;2023-02-23T04:35:34;94956.72;;;10.05;58.48
5380;BME280;2713;42.680;23.310;2023-02-23T04:38:01;94948.13;;;10.04;58.42
5380;BME280;2713;42.680;23.310;2023-02-23T04:40:28;94950.09;;;10.02;58.25
5380;BME280;2713;42.680;23.310;2023-02-23T04:42:55;94955.19;;;10.10;57.91
5380;BME280;2713;42.680;23.310;2023-02-23T04:45:22;94955.09;;;10.04;58.25
5380;BME280;2713;42.680;23.310;2023-02-23T04:47:50;94949.81;;;10.12;57.75
5380;BME280;2713;42.680;23.310;2023-02-23T04:50:18;94953.06;;;10.14;57.66
5380;BME280;2713;42.680;23.310;2023-02-23T04:52:46;94956.81;;;10.11;57.84
5380;BME280;2713;42.680;23.310;2023-02-23T04:55:17;94960.13;;;10.05;57.73
5380;BME280;2713;42.680;23.310;2023-02-23T04:57:44;94954.03;;;9.98;58.10
5380;BME280;2713;42.680;23.310;2023-02-23T05:00:12;94957.59;;;9.97;58.38
5380;BME280;2713;42.680;23.310;2023-02-23T05:02:39;94950.47;;;9.99;58.10
5380;BME280;2713;42.680;23.310;2023-02-23T05:05:07;94950.97;;;9.95;58.00
5380;BME280;2713;42.680;23.310;2023-02-23T05:07:35;94955.91;;;10.04;57.77
5380;BME280;2713;42.680;23.310;2023-02-23T05:10:03;94961.75;;;10.06;57.54
5380;BME280;2713;42.680;23.310;2023-02-23T05:12:30;94956.78;;;9.97;57.95
5380;BME280;2713;42.680;23.310;2023-02-23T05:14:57;94954.91;;;9.91;57.88
5380;BME280;2713;42.680;23.310;2023-02-23T05:17:24;94956.34;;;9.93;57.91
5380;BME280;2713;42.680;23.310;2023-02-23T05:19:51;94956.59;;;9.84;58.39
5380;BME280;2713;42.680;23.310;2023-02-23T05:22:18;94965.09;;;9.78;58.74
5380;BME280;2713;42.680;23.310;2023-02-23T05:24:47;94963.63;;;9.60;59.15
5380;BME280;2713;42.680;23.310;2023-02-23T05:27:14;94963.69;;;9.52;59.87
5380;BME280;2713;42.680;23.310;2023-02-23T05:29:42;94971.06;;;9.63;58.79
5380;BME280;2713;42.680;23.310;2023-02-23T05:32:08;94967.91;;;9.53;58.89
5380;BME280;2713;42.680;23.310;2023-02-23T05:34:35;94975.69;;;9.53;58.55
5380;BME280;2713;42.680;23.310;2023-02-23T05:37:03;94963.66;;;9.38;58.81
5380;BME280;2713;42.680;23.310;2023-02-23T05:39:30;94980.72;;;9.55;58.58
5380;BME280;2713;42.680;23.310;2023-02-23T05:41:59;94978.78;;;9.34;59.72
5380;BME280;2713;42.680;23.310;2023-02-23T05:44:25;94988.72;;;9.45;59.60
5380;BME280;2713;42.680;23.310;2023-02-23T05:46:53;94987.59;;;9.62;62.93
5380;BME280;2713;42.680;23.310;2023-02-23T05:49:20;94994.34;;;9.34;60.12
5380;BME280;2713;42.680;23.310;2023-02-23T05:51:47;94997.56;;;9.36;59.99
5380;BME280;2713;42.680;23.310;2023-02-23T05:54:13;94997.53;;;9.59;59.00
5380;BME280;2713;42.680;23.310;2023-02-23T05:56:40;94999.09;;;9.68;58.75
5380;BME280;2713;42.680;23.310;2023-02-23T05:59:09;95001.75;;;9.60;58.83
5380;BME280;2713;42.680;23.310;2023-02-23T06:01:41;95011.31;;;9.59;59.09
5380;BME280;2713;42.680;23.310;2023-02-23T06:04:08;95002.66;;;9.67;59.42
5380;BME280;2713;42.680;23.310;2023-02-23T06:06:35;95011.19;;;9.76;58.97
5380;BME280;2713;42.680;23.310;2023-02-23T06:09:02;95012.78;;;9.77;58.87
5380;BME280;2713;42.680;23.310;2023-02-23T06:11:29;95012.59;;;9.63;59.44
5380;BME280;2713;42.680;23.310;2023-02-23T06:13:57;94990.44;;;9.53;59.29
5380;BME280;2713;42.680;23.310;2023-02-23T06:16:26;95011.31;;;9.59;59.18
5380;BME280;2713;42.680;23.310;2023-02-23T06:18:53;95014.63;;;9.91;58.68
5380;BME280;2713;42.680;23.310;2023-02-23T06:21:20;95029.84;;;9.94;58.56
5380;BME280;2713;42.680;23.310;2023-02-23T06:23:47;95026.72;;;9.98;58.34
5380;BME280;2713;42.680;23.310;2023-02-23T06:26:14;95029.34;;;10.13;58.20
5380;BME280;2713;42.680;23.310;2023-02-23T06:28:41;95028.84;;;10.17;58.35
5380;BME280;2713;42.680;23.310;2023-02-23T06:31:07;95026.34;;;10.24;57.78
5380;BME280;2713;42.680;23.310;2023-02-23T06:33:36;95025.66;;;10.30;57.32
5380;BME280;2713;42.680;23.310;2023-02-23T06:36:03;95030.31;;;10.20;58.34
5380;BME280;2713;42.680;23.310;2023-02-23T06:38:30;95032.25;;;10.18;58.81
5380;BME280;2713;42.680;23.310;2023-02-23T06:40:57;95035.19;;;10.15;58.90
5380;BME280;2713;42.680;23.310;2023-02-23T06:43:24;95035.94;;;10.24;58.84
5380;BME280;2713;42.680;23.310;2023-02-23T06:45:50;95033.09;;;10.33;58.45
5380;BME280;2713;42.680;23.310;2023-02-23T06:48:17;95038.34;;;10.25;58.48
5380;BME280;2713;42.680;23.310;2023-02-23T06:50:45;95025.66;;;10.30;58.41
5380;BME280;2713;42.680;23.310;2023-02-23T06:53:12;95032.78;;;10.28;58.99
5380;BME280;2713;42.680;23.310;2023-02-23T06:55:39;95035.03;;;10.31;58.69
5380;BME280;2713;42.680;23.310;2023-02-23T06:58:06;95027.72;;;10.49;58.03
5380;BME280;2713;42.680;23.310;2023-02-23T07:00:33;95031.56;;;10.53;58.24
5380;BME280;2713;42.680;23.310;2023-02-23T07:02:59;95035.88;;;10.46;57.60
5380;BME280;2713;42.680;23.310;2023-02-23T07:05:26;95033.28;;;10.61;57.86
5380;BME280;2713;42.680;23.310;2023-02-23T07:07:55;95033.44;;;10.74;57.25
5380;BME280;2713;42.680;23.310;2023-02-23T07:10:22;95033.53;;;10.37;57.10
5380;BME280;2713;42.680;23.310;2023-02-23T07:12:49;95032.81;;;10.57;56.36
5380;BME280;2713;42.680;23.310;2023-02-23T07:15:16;95028.97;;;10.53;56.33
5380;BME280;2713;42.680;23.310;2023-02-23T07:17:45;95035.13;;;10.82;56.22
5380;BME280;2713;42.680;23.310;2023-02-23T07:20:14;95012.34;;;10.98;54.99
5380;BME280;2713;42.680;23.310;2023-02-23T07:22:41;95026.81;;;11.64;53.85
5380;BME280;2713;42.680;23.310;2023-02-23T07:25:09;95035.09;;;12.17;52.46
5380;BME280;2713;42.680;23.310;2023-02-23T07:27:37;95019.94;;;12.61;52.08
5380;BME280;2713;42.680;23.310;2023-02-23T07:30:05;95025.81;;;12.63;52.04
5380;BME280;2713;42.680;23.310;2023-02-23T07:32:32;95024.75;;;13.05;50.32
5380;BME280;2713;42.680;23.310;2023-02-23T07:34:58;95023.47;;;13.29;49.79
5380;BME280;2713;42.680;23.310;2023-02-23T07:37:25;95021.88;;;13.28;49.84
5380;BME280;2713;42.680;23.310;2023-02-23T07:39:52;95018.63;;;13.19;49.76
5380;BME280;2713;42.680;23.310;2023-02-23T07:42:20;95015.31;;;13.58;49.24
5380;BME280;2713;42.680;23.310;2023-02-23T07:44:47;95015.97;;;14.00;48.68
5380;BME280;2713;42.680;23.310;2023-02-23T07:47:14;95019.97;;;14.42;47.65
5380;BME280;2713;42.680;23.310;2023-02-23T07:49:40;95016.09;;;14.70;46.64
5380;BME280;2713;42.680;23.310;2023-02-23T07:52:08;95012.88;;;14.75;46.49
5380;BME280;2713;42.680;23.310;2023-02-23T07:54:34;95017.56;;;15.11;45.22
5380;BME280;2713;42.680;23.310;2023-02-23T07:57:01;95000.47;;;15.08;45.91
5380;BME280;2713;42.680;23.310;2023-02-23T07:59:29;94989.78;;;15.10;45.01
5380;BME280;2713;42.680;23.310;2023-02-23T08:01:57;94983.94;;;15.52;43.93
5380;BME280;2713;42.680;23.310;2023-02-23T08:04:23;95005.22;;;15.94;43.51
5380;BME280;2713;42.680;23.310;2023-02-23T08:06:50;95002.34;;;16.02;43.53
5380;BME280;2713;42.680;23.310;2023-02-23T08:09:17;95001.25;;;16.34;42.64
5380;BME280;2713;42.680;23.310;2023-02-23T08:11:44;95000.03;;;16.37;42.41
5380;BME280;2713;42.680;23.310;2023-02-23T08:14:11;94992.16;;;16.12;42.63
5380;BME280;2713;42.680;23.310;2023-02-23T08:16:39;94995.63;;;15.81;43.10
5380;BME280;2713;42.680;23.310;2023-02-23T08:19:06;94992.84;;;16.01;42.98
5380;BME280;2713;42.680;23.310;2023-02-23T08:21:32;94995.84;;;16.29;41.98
5380;BME280;2713;42.680;23.310;2023-02-23T08:23:59;94998.91;;;16.26;42.54
5380;BME280;2713;42.680;23.310;2023-02-23T08:26:26;95001.66;;;16.31;42.72
5380;BME280;2713;42.680;23.310;2023-02-23T08:28:53;94995.00;;;16.53;42.07
5380;BME280;2713;42.680;23.310;2023-02-23T08:31:20;95000.66;;;16.57;41.92
5380;BME280;2713;42.680;23.310;2023-02-23T08:33:49;95004.75;;;16.71;41.15
5380;BME280;2713;42.680;23.310;2023-02-23T08:36:16;94992.88;;;16.87;40.87
5380;BME280;2713;42.680;23.310;2023-02-23T08:38:45;95003.44;;;16.98;41.02
5380;BME280;2713;42.680;23.310;2023-02-23T08:41:12;95003.81;;;17.02;41.15
5380;BME280;2713;42.680;23.310;2023-02-23T08:43:39;94995.31;;;17.36;40.36
5380;BME280;2713;42.680;23.310;2023-02-23T08:46:06;94996.28;;;17.53;39.97
5380;BME280;2713;42.680;23.310;2023-02-23T08:48:33;94994.75;;;17.76;39.53
5380;BME280;2713;42.680;23.310;2023-02-23T08:51:02;94993.59;;;17.71;39.36
5380;BME280;2713;42.680;23.310;2023-02-23T08:53:28;94998.03;;;17.59;39.47
5380;BME280;2713;42.680;23.310;2023-02-23T08:55:56;94987.00;;;17.51;39.85
5380;BME280;2713;42.680;23.310;2023-02-23T08:58:23;94989.09;;;17.60;39.30
5380;BME280;2713;42.680;23.310;2023-02-23T09:00:50;94988.00;;;17.68;39.41
5380;BME280;2713;42.680;23.310;2023-02-23T09:03:18;94988.06;;;18.03;39.29
5380;BME280;2713;42.680;23.310;2023-02-23T09:05:45;94984.13;;;17.82;38.95
5380;BME280;2713;42.680;23.310;2023-02-23T09:08:13;94981.75;;;17.81;38.72
5380;BME280;2713;42.680;23.310;2023-02-23T09:10:41;94982.88;;;17.85;38.68
5380;BME280;2713;42.680;23.310;2023-02-23T09:13:08;94979.47;;;17.96;38.77
5380;BME280;2713;42.680;23.310;2023-02-23T09:15:36;94984.38;;;17.92;38.62
5380;BME280;2713;42.680;23.310;2023-02-23T09:18:03;94984.09;;;18.23;38.51
5380;BME280;2713;42.680;23.310;2023-02-23T09:20:30;94956.06;;;18.17;38.22
5380;BME280;2713;42.680;23.310;2023-02-23T09:22:56;94975.81;;;18.08;38.56
5380;BME280;2713;42.680;23.310;2023-02-23T09:25:25;94975.84;;;18.20;38.32
5380;BME280;2713;42.680;23.310;2023-02-23T09:27:54;94981.31;;;18.07;38.52
5380;BME280;2713;42.680;23.310;2023-02-23T09:30:22;94970.13;;;18.46;38.57
5380;BME280;2713;42.680;23.310;2023-02-23T09:32:49;94982.38;;;18.76;37.74
5380;BME280;2713;42.680;23.310;2023-02-23T09:35:18;94978.13;;;18.74;37.41
5380;BME280;2713;42.680;23.310;2023-02-23T09:37:47;94977.91;;;18.64;37.77
5380;BME280;2713;42.680;23.310;2023-02-23T09:40:16;94973.00;;;18.21;37.90
5380;BME280;2713;42.680;23.310;2023-02-23T09:42:52;94983.41;;;18.28;38.14
5380;BME280;2713;42.680;23.310;2023-02-23T09:45:32;94986.16;;;18.33;37.81
5380;BME280;2713;42.680;23.310;2023-02-23T09:48:10;94978.59;;;18.25;38.24
5380;BME280;2713;42.680;23.310;2023-02-23T09:50:39;94974.88;;;17.80;38.87
5380;BME280;2713;42.680;23.310;2023-02-23T09:53:32;94976.41;;;17.57;39.11
5380;BME280;2713;42.680;23.310;2023-02-23T09:56:04;94971.97;;;17.58;39.12
5380;BME280;2713;42.680;23.310;2023-02-23T09:58:34;94966.84;;;17.74;39.01
5380;BME280;2713;42.680;23.310;2023-02-23T10:01:19;94964.19;;;18.04;38.46
5380;BME280;2713;42.680;23.310;2023-02-23T10:03:52;94966.47;;;18.01;38.35
5380;BME280;2713;42.680;23.310;2023-02-23T10:06:20;94961.91;;;18.08;38.43
5380;BME280;2713;42.680;23.310;2023-02-23T10:08:58;94964.19;;;18.04;38.61
5380;BME280;2713;42.680;23.310;2023-02-23T10:11:34;94978.94;;;18.17;38.21
5380;BME280;2713;42.680;23.310;2023-02-23T10:17:12;94954.56;;;18.56;37.53
5380;BME280;2713;42.680;23.310;2023-02-23T10:19:50;94955.03;;;18.42;37.53
5380;BME280;2713;42.680;23.310;2023-02-23T10:22:19;94950.69;;;18.59;36.95
5380;BME280;2713;42.680;23.310;2023-02-23T10:24:51;94947.75;;;18.84;36.98
5380;BME280;2713;42.680;23.310;2023-02-23T10:27:23;94949.84;;;18.82;37.09
5380;BME280;2713;42.680;23.310;2023-02-23T10:29:55;94938.34;;;18.59;36.70
5380;BME280;2713;42.680;23.310;2023-02-23T10:32:30;94946.66;;;18.56;37.02
5380;BME280;2713;42.680;23.310;2023-02-23T10:35:00;94942.13;;;18.52;37.18
5380;BME280;2713;42.680;23.310;2023-02-23T10:37:30;94928.72;;;18.42;37.52
5380;BME280;2713;42.680;23.310;2023-02-23T10:39:57;94924.13;;;18.25;37.46
5380;BME280;2713;42.680;23.310;2023-02-23T10:42:26;94923.91;;;18.39;37.85
5380;BME280;2713;42.680;23.310;2023-02-23T10:44:55;94923.53;;;18.47;37.31
5380;BME280;2713;42.680;23.310;2023-02-23T10:47:23;94919.56;;;18.56;36.84
5380;BME280;2713;42.680;23.310;2023-02-23T10:49:54;94920.09;;;18.46;37.10
5380;BME280;2713;42.680;23.310;2023-02-23T10:52:26;94918.06;;;18.48;37.16
5380;BME280;2713;42.680;23.310;2023-02-23T10:54:55;94910.50;;;18.40;37.03
5380;BME280;2713;42.680;23.310;2023-02-23T10:57:24;94911.91;;;18.31;37.48
5380;BME280;2713;42.680;23.310;2023-02-23T11:00:02;94906.16;;;18.34;36.89
5380;BME280;2713;42.680;23.310;2023-02-23T11:02:29;94897.13;;;18.30;37.18
5380;BME280;2713;42.680;23.310;2023-02-23T11:04:57;94901.63;;;18.18;37.14
5380;BME280;2713;42.680;23.310;2023-02-23T11:07:26;94890.06;;;18.07;37.70
5380;BME280;2713;42.680;23.310;2023-02-23T11:09:54;94892.34;;;17.81;38.28
5380;BME280;2713;42.680;23.310;2023-02-23T11:12:23;94898.53;;;17.86;38.32
5380;BME280;2713;42.680;23.310;2023-02-23T11:14:52;94855.97;;;17.78;38.03
5380;BME280;2713;42.680;23.310;2023-02-23T11:17:29;94887.78;;;17.99;38.12
5380;BME280;2713;42.680;23.310;2023-02-23T11:19:58;94885.25;;;18.16;38.01
5380;BME280;2713;42.680;23.310;2023-02-23T11:22:31;94880.88;;;18.33;37.71
5380;BME280;2713;42.680;23.310;2023-02-23T11:24:59;94874.88;;;18.49;37.63
5380;BME280;2713;42.680;23.310;2023-02-23T11:27:28;94868.81;;;18.72;37.14
5380;BME280;2713;42.680;23.310;2023-02-23T11:29:56;94867.53;;;18.74;36.83
5380;BME280;2713;42.680;23.310;2023-02-23T11:32:30;94870.50;;;18.78;37.01
5380;BME280;2713;42.680;23.310;2023-02-23T11:35:25;94867.13;;;18.66;37.26
5380;BME280;2713;42.680;23.310;2023-02-23T11:37:53;94868.63;;;18.62;37.02
5380;BME280;2713;42.680;23.310;2023-02-23T11:40:22;94861.06;;;18.65;36.92
5380;BME280;2713;42.680;23.310;2023-02-23T11:42:52;94862.06;;;18.76;36.70
5380;BME280;2713;42.680;23.310;2023-02-23T11:45:20;94856.34;;;18.67;36.89
5380;BME280;2713;42.680;23.310;2023-02-23T11:47:51;94852.69;;;18.68;36.97
5380;BME280;2713;42.680;23.310;2023-02-23T11:50:27;94853.19;;;18.82;39.52
5380;BME280;2713;42.680;23.310;2023-02-23T11:52:59;94851.22;;;18.89;37.19
5380;BME280;2713;42.680;23.310;2023-02-23T11:55:28;94850.78;;;18.41;37.38
5380;BME280;2713;42.680;23.310;2023-02-23T11:58:16;94848.75;;;18.19;37.59
5380;BME280;2713;42.680;23.310;2023-02-23T12:00:54;94849.34;;;18.10;37.85
5380;BME280;2713;42.680;23.310;2023-02-23T12:03:23;94843.63;;;18.13;38.49
5380;BME280;2713;42.680;23.310;2023-02-23T12:05:53;94844.97;;;18.15;39.14
5380;BME280;2713;42.680;23.310;2023-02-23T12:08:33;94844.25;;;18.43;37.75
5380;BME280;2713;42.680;23.310;2023-02-23T12:11:03;94840.47;;;18.62;36.78
5380;BME280;2713;42.680;23.310;2023-02-23T12:13:35;94834.13;;;18.63;36.80
5380;BME280;2713;42.680;23.310;2023-02-23T12:16:06;94838.50;;;18.69;36.46
5380;BME280;2713;42.680;23.310;2023-02-23T12:18:43;94832.56;;;18.39;36.77
5380;BME280;2713;42.680;23.310;2023-02-23T12:21:23;94836.94;;;18.45;36.75
5380;BME280;2713;42.680;23.310;2023-02-23T12:23:58;94830.38;;;18.48;36.65
5380;BME280;2713;42.680;23.310;2023-02-23T12:26:29;94839.44;;;18.40;36.84
5380;BME280;2713;42.680;23.310;2023-02-23T12:29:02;94835.59;;;18.19;37.18
5380;BME280;2713;42.680;23.310;2023-02-23T12:31:41;94816.06;;;17.92;37.46
5380;BME280;2713;42.680;23.310;2023-02-23T12:34:16;94819.84;;;18.08;37.11
5380;BME280;2713;42.680;23.310;2023-02-23T12:36:51;94821.34;;;18.04;37.22
5380;BME280;2713;42.680;23.310;2023-02-23T12:39:24;94830.81;;;18.05;36.64
5380;BME280;2713;42.680;23.310;2023-02-23T12:42:01;94820.28;;;18.05;37.11
5380;BME280;2713;42.680;23.310;2023-02-23T12:44:34;94823.38;;;18.02;36.74
5380;BME280;2713;42.680;23.310;2023-02-23T12:47:06;94829.56;;;17.96;36.75
5380;BME280;2713;42.680;23.310;2023-02-23T12:49:39;94821.69;;;17.96;36.81
5380;BME280;2713;42.680;23.310;2023-02-23T12:52:11;94828.09;;;18.00;37.07
5380;BME280;2713;42.680;23.310;2023-02-23T12:54:43;94821.81;;;18.01;37.37
5380;BME280;2713;42.680;23.310;2023-02-23T12:57:17;94812.72;;;18.08;37.62
5380;BME280;2713;42.680;23.310;2023-02-23T13:00:06;94812.09;;;17.90;37.86
5380;BME280;2713;42.680;23.310;2023-02-23T13:03:06;94811.75;;;17.86;38.06
5380;BME280;2713;42.680;23.310;2023-02-23T13:05:38;94809.66;;;17.88;38.63
5380;BME280;2713;42.680;23.310;2023-02-23T13:08:12;94818.47;;;17.82;39.06
5380;BME280;2713;42.680;23.310;2023-02-23T13:10:50;94813.56;;;17.74;39.12
5380;BME280;2713;42.680;23.310;2023-02-23T13:13:27;94814.72;;;17.78;39.49
5380;BME280;2713;42.680;23.310;2023-02-23T13:16:02;94820.78;;;17.79;39.45
5380;BME280;2713;42.680;23.310;2023-02-23T13:18:35;94822.16;;;17.69;39.09
5380;BME280;2713;42.680;23.310;2023-02-23T13:21:12;94812.91;;;17.67;39.35
5380;BME280;2713;42.680;23.310;2023-02-23T13:23:48;94808.22;;;17.69;39.37
5380;BME280;2713;42.680;23.310;2023-02-23T13:26:26;94810.16;;;17.73;39.44
5380;BME280;2713;42.680;23.310;2023-02-23T13:28:57;94811.63;;;17.81;39.13
5380;BME280;2713;42.680;23.310;2023-02-23T13:31:29;94813.81;;;17.84;39.05
5380;BME280;2713;42.680;23.310;2023-02-23T13:33:59;94805.25;;;17.77;39.22
5380;BME280;2713;42.680;23.310;2023-02-23T13:36:30;94811.41;;;17.83;39.27
5380;BME280;2713;42.680;23.310;2023-02-23T13:39:13;94810.03;;;17.68;39.28
5380;BME280;2713;42.680;23.310;2023-02-23T13:41:53;94808.41;;;17.67;39.13
5380;BME280;2713;42.680;23.310;2023-02-23T13:44:28;94811.75;;;17.74;39.15